CA-0514 weather

Long Sault Airstrip
Ontario, Canada

Public forecast

Using degrees Celsius for public forecast. Weather courtesy of forecast.io.

METAR (pilot weather report)

Closest report is Massena International Richards Field, 6.3 nm (11.6 km) S. Retrieved 2019/05/21 14:53 UTC (21 minutes ago):

KMSS 211453Z AUTO 29013G26KT 10SM BKN037 OVC050 12/03 A2993 RMK AO2 PK WND 28028/1426 SLP138 T01170033 53008

TAF (pilot weather forecast)

Closest forecast is Massena International Richards Field, 6.3 nm (11.6 km) S. Retrieved 2019/05/21 12:42 UTC (3 hours ago):

TAF KMSS 211141Z 2112/2212 28012G18KT P6SM OVC035 FM211500 29015G25KT P6SM BKN035 FM211900 31015G24KT P6SM BKN060 FM212300 31010KT P6SM SCT070 FM220500 33007KT P6SM SKC